Daily Summary

Last 30 Days

Daily Data | America/Los_Angeles
as of 2/28/21 3:52 AM PST
Date Daily Max Temp (°F) Daily Min Temp (°F) Daily Rain (In) Seasonal Rainfall (In) Daily Solar Rad (Cal/cm2) Daily ETo (in) Wind Spd (mph) Daily Max Wind (mph) Max Wind Dir (°) Dew Pt (°F) Max RH (%) Min RH (%) Daily Leaf Wet Hrs (hrs) Soil Temp (°F) Soil Moist (%) Fuel Moisture (%) Max Fuel Moisture (%) Min Fuel Moisture (%) Bat Volt Min Day (V)
2/27/21 60.1 39.6 0.00 21.26 436 0.098 2.2 17.0 ENE | 65 28.2 86 24 2.8 51.8 23.8 13 17 6 12.4
2/26/21 66.0 40.3 0.00 21.26 427 0.104 0.8 11.1 NE | 54 31.8 80 26 0.0 51.7 24.1 10 15 1 12.4
2/25/21 67.7 46.8 0.00 21.26 429 0.102 2.6 22.6 NNE | 22 12.0 40 9 0.0 51.7 24.6 8 11 0 12.4
2/24/21 67.0 50.9 0.00 21.26 434 0.104 3.4 21.8 N | 10 13.0 32 8 0.0 51.6 25.2 9 12 2 12.4
2/23/21 71.1 52.7 0.00 21.26 374 0.092 3.8 21.3 NNE | 19 24.1 54 11 0.0 51.5 25.8 10 15 0 12.4
2/22/21 72.5 45.0 0.00 21.26 401 0.101 1.2 21.0 N | 1 34.2 70 20 0.0 51.4 26.2 12 18 0 12.4
2/21/21 60.9 41.1 0.00 21.26 398 0.091 1.9 11.8 N | 3 32.1 79 26 0.0 51.4 26.5 17 23 7 12.3
2/20/21 56.0 40.4 0.02 21.26 282 0.060 2.3 16.0 NNE | 30 36.9 91 46 7.9 51.3 26.8 24 32 15 12.3
2/19/21 62.3 41.2 0.01 21.24 223 0.054 0.7 8.3 NW | 307 42.6 93 33 8.1 51.3 27.0 18 24 11 12.4
2/18/21 63.6 40.0 0.00 21.23 375 0.087 1.0 8.1 SW | 233 25.6 65 16 0.0 51.3 27.1 15 20 5 12.4
2/17/21 59.0 38.9 0.00 21.23 390 0.086 1.9 12.6 ENE | 59 27.0 93 16 8.0 51.2 27.6 24 36 13 12.4
2/16/21 56.9 37.9 0.01 21.23 241 0.051 1.2 9.9 WSW | 249 38.8 95 57 12.3 51.1 28.0 34 48 20 12.3
2/15/21 58.7 40.8 0.05 21.22 156 0.036 0.7 7.8 SSW | 209 46.1 96 71 20.1 51.0 28.3 39 50 31 12.4
2/14/21 55.1 39.7 0.02 21.17 170 0.039 0.9 9.2 WSW | 248 38.4 94 40 4.8 50.8 28.1 26 36 19 12.4
2/13/21 59.7 41.1 0.06 21.15 322 0.072 1.4 13.0 NE | 53 40.6 95 38 9.0 50.6 28.4 30 50 19 12.4
2/12/21 58.2 42.4 0.01 21.09 298 0.067 1.4 11.2 NE | 43 42.2 94 50 12.2 50.4 28.7 40 56 22 12.3
2/11/21 57.5 44.5 0.33 21.08 161 0.039 0.7 7.4 WSW | 243 44.8 95 62 17.3 50.2 26.4 33 54 18 12.4
2/10/21 63.2 43.8 0.00 20.75 348 0.083 0.9 6.5 NW | 317 43.3 90 55 10.6 50.1 26.3 22 29 9 12.3
2/9/21 55.4 44.1 0.00 20.75 160 0.036 0.4 8.1 SSW | 206 44.4 94 74 12.8 49.9 26.4 23 27 19 12.4
2/8/21 60.9 44.4 0.00 20.75 259 0.060 0.5 6.8 W | 278 37.0 93 31 3.5 49.8 26.5 16 20 9 12.4
2/7/21 69.7 47.1 0.00 20.75 328 0.081 0.7 4.9 WSW | 250 33.1 65 27 0.0 49.7 26.7 13 17 1 12.4
2/6/21 69.4 47.8 0.00 20.75 351 0.086 1.9 14.1 NNE | 17 34.5 71 19 0.0 49.6 27.0 13 18 1 12.4
2/5/21 69.3 43.9 0.00 20.75 349 0.084 1.5 14.6 N | 1 33.6 69 26 0.0 49.6 27.3 17 24 4 12.4
2/4/21 57.2 37.8 0.00 20.75 338 0.071 2.1 11.7 NE | 37 33.5 91 29 3.1 49.4 27.7 27 36 15 12.4
2/3/21 56.6 34.4 0.01 20.75 324 0.068 1.2 10.3 N | 349 38.3 96 47 14.4 49.2 28.5 41 57 22 12.3
2/2/21 55.1 40.5 0.94 20.74 143 0.031 0.7 7.9 W | 260 46.3 96 83 24.0 49.1 30.5 52 56 42 12.3
2/1/21 56.7 42.8 0.36 19.80 148 0.034 1.1 9.6 SW | 227 42.8 95 62 8.5 49.0 28.0 33 53 19 12.4
1/31/21 60.2 40.6 0.00 19.44 225 0.050 0.9 7.2 SSW | 210 40.1 94 33 7.1 48.9 27.8 28 37 19 12.4
1/30/21 56.3 38.3 0.00 19.44 270 0.058 0.9 8.2 W | 261 39.8 96 49 12.0 48.9 28.3 42 56 25 12.4
1/29/21 52.3 36.0 0.17 19.44 245 0.051 0.7 6.1 S | 187 39.2 96 64 20.4 49.0 29.5 52 60 32 12.2
Max 72.5 52.7 0.94 - 436 0.104 3.8 22.6 - 46.3 96 83 24.0 51.8 30.5 52 60 42 12.4
Avg - - - - - - 1.4 - - 35.5 - - - 50.4 27.1 25 34 14 -
Min 52.3 34.4 0.00 - 143 0.031 0.4 4.9 - 12.0 32 8 0.0 48.9 23.8 8 11 0 12.2